Aviation Digital Data Service (ADDS)

Output produced by METARs form (2110 UTC 16 February 2019)
found at http://www.aviationweather.gov/metar/data/
 
Forecast for: RPVM (MACTAN-CEBU , PH)
Text: TAF RPVM 161700Z 1618/1724 05008KT 9999 FEW020 BKN100
Forecast period: 1800 UTC 16 February 2019 to 0000 UTC 18 February 2019
Forecast type: FROM: standard forecast or significant change
Winds: from the NE (50 degrees) at 9 MPH (8 knots; 4.1 m/s)
Visibility: 6 or more miles 10+ km)
Ceiling: 10000 feet AGL
Clouds: few clouds at 2000 feet AGL
broken clouds at 10000 feet AGL
Weather: no significant weather forecast for this period
Text: TEMPO 1618/1624 06010KT FEW020 OVC100
Forecast period: 1800 UTC 16 February 2019 to 0000 UTC 17 February 2019
Forecast type: TEMPORARY: The following changes expected for less than half the time period
Winds: from the ENE (60 degrees) at 12 MPH (10 knots; 5.1 m/s)
Visibility: missing
Ceiling: 10000 feet AGL
Clouds: few clouds at 2000 feet AGL
overcast cloud deck at 10000 feet AGL
Weather: no significant weather forecast for this period
Text: TEMPO 1700/1706 04008KT FEW020 BKN300
Forecast period: 0000 to 0600 UTC 17 February 2019
Forecast type: TEMPORARY: The following changes expected for less than half the time period
Winds: from the NE (40 degrees) at 9 MPH (8 knots; 4.1 m/s)
Visibility: missing
Ceiling: 30000 feet AGL
Clouds: few clouds at 2000 feet AGL
broken clouds at 30000 feet AGL
Weather: no significant weather forecast for this period